createdAt,value
2019-04-07T00:00:59.783Z,11.15
2019-04-07T00:03:32.318Z,13.05
2019-04-07T00:06:05.344Z,10.75
2019-04-07T00:08:38.687Z,9.95
2019-04-07T00:11:11.930Z,8.78
2019-04-07T00:13:44.777Z,9.85
2019-04-07T00:16:18.501Z,12.60
2019-04-07T00:18:52.078Z,13.58
2019-04-07T00:21:25.218Z,14.75
2019-04-07T00:24:01.480Z,14.40
2019-04-07T00:26:33.765Z,15.23
2019-04-07T00:29:06.597Z,15.63
2019-04-07T00:31:40.198Z,14.05
2019-04-07T00:34:13.377Z,15.10
2019-04-07T00:36:46.860Z,13.48
2019-04-07T00:39:20.855Z,13.20
2019-04-07T00:41:53.617Z,14.35
2019-04-07T00:44:26.597Z,17.15
2019-04-07T00:46:59.793Z,16.77
2019-04-07T00:49:34.761Z,15.15
2019-04-07T00:52:08.407Z,12.65
2019-04-07T00:54:42.391Z,14.58
2019-04-07T00:57:15.017Z,15.15
2019-04-07T00:59:48.836Z,14.85
2019-04-07T01:02:22.497Z,14.50
2019-04-07T01:04:56.141Z,15.05
2019-04-07T01:07:29.955Z,12.70
2019-04-07T01:10:02.931Z,13.28
2019-04-07T01:12:35.860Z,12.10
2019-04-07T01:15:08.703Z,13.00
2019-04-07T01:17:42.366Z,12.70
2019-04-07T01:20:15.155Z,13.98
2019-04-07T01:22:48.597Z,13.43
2019-04-07T01:25:21.483Z,12.90
2019-04-07T01:27:54.440Z,12.30
2019-04-07T01:30:28.259Z,12.33
2019-04-07T01:33:00.978Z,22.93
2019-04-07T01:35:44.496Z,14.90
2019-04-07T01:38:08.237Z,12.55
2019-04-07T01:40:42.773Z,12.55
2019-04-07T01:43:26.607Z,11.45
2019-04-07T01:46:32.857Z,13.00
2019-04-07T01:49:36.378Z,24.67
2019-04-07T01:52:21.089Z,19.25
2019-04-07T01:55:15.415Z,18.02
2019-04-07T01:58:07.222Z,17.30
2019-04-07T02:01:05.392Z,17.15
2019-04-07T02:03:55.301Z,64.90
2019-04-07T02:06:36.509Z,17.75
2019-04-07T02:09:23.650Z,21.15
2019-04-07T02:12:15.783Z,21.75
2019-04-07T02:15:09.721Z,19.05
2019-04-07T02:18:01.357Z,20.60
2019-04-07T02:21:07.479Z,21.40
2019-04-07T02:23:55.968Z,18.65
2019-04-07T02:26:34.657Z,20.08
2019-04-07T02:29:31.557Z,21.10
2019-04-07T02:32:25.812Z,20.23
2019-04-07T02:35:08.753Z,20.68
2019-04-07T02:37:50.047Z,21.30
2019-04-07T02:40:41.279Z,18.48
2019-04-07T02:43:51.489Z,18.80
2019-04-07T02:46:42.458Z,21.23
2019-04-07T02:49:21.737Z,20.80
2019-04-07T02:52:18.597Z,20.80
2019-04-07T02:55:13.116Z,23.42
2019-04-07T02:57:54.977Z,23.75
2019-04-07T03:00:41.545Z,25.20
2019-04-07T03:03:31.132Z,25.08
2019-04-07T03:06:37.641Z,27.58
2019-04-07T03:09:26.198Z,25.37
2019-04-07T03:12:33.236Z,26.93
2019-04-07T03:15:13.129Z,25.82
2019-04-07T03:18:00.762Z,26.33
2019-04-07T03:20:45.473Z,26.33
2019-04-07T03:23:44.040Z,27.77
2019-04-07T03:26:34.299Z,26.48
2019-04-07T03:29:25.508Z,23.73
2019-04-07T03:32:23.865Z,25.97
2019-04-07T03:35:13.182Z,26.55
2019-04-07T03:38:07.793Z,26.57
2019-04-07T03:41:00.256Z,26.45
2019-04-07T03:43:54.703Z,26.02
2019-04-07T03:46:57.937Z,26.75
2019-04-07T03:49:41.250Z,30.30
2019-04-07T03:52:25.019Z,31.05
2019-04-07T03:55:24.857Z,30.90
2019-04-07T03:58:16.230Z,31.00
2019-04-07T04:01:33.294Z,30.25
2019-04-07T04:04:28.689Z,29.85
2019-04-07T04:07:20.666Z,29.48
2019-04-07T04:09:46.059Z,30.90
2019-04-07T04:12:39.378Z,31.50
2019-04-07T04:15:24.946Z,30.35
2019-04-07T04:17:58.340Z,32.05
2019-04-07T04:20:30.638Z,31.85
2019-04-07T04:23:03.989Z,30.00
2019-04-07T04:25:37.365Z,32.00
2019-04-07T04:28:12.100Z,30.17
2019-04-07T04:30:45.173Z,30.95
2019-04-07T04:33:18.072Z,30.23
2019-04-07T04:35:51.684Z,30.05
2019-04-07T04:38:24.978Z,29.50
2019-04-07T04:40:58.112Z,30.00
2019-04-07T04:43:31.833Z,30.97
2019-04-07T04:46:04.631Z,29.10
2019-04-07T04:48:40.887Z,29.15
2019-04-07T04:51:13.959Z,30.48
2019-04-07T04:53:47.582Z,30.17
2019-04-07T04:56:20.563Z,27.65
2019-04-07T04:58:53.942Z,29.82
2019-04-07T05:01:26.604Z,22.00
2019-04-07T05:03:59.618Z,18.48
2019-04-07T05:06:32.098Z,16.82
2019-04-07T05:09:06.902Z,24.87
2019-04-07T05:11:40.753Z,19.20
2019-04-07T05:14:14.223Z,16.80
2019-04-07T05:16:46.757Z,15.93
2019-04-07T05:19:20.917Z,17.00
2019-04-07T05:21:54.801Z,17.80
2019-04-07T05:24:28.117Z,17.90
2019-04-07T05:27:01.157Z,17.55
2019-04-07T05:29:34.637Z,20.10
2019-04-07T05:32:07.986Z,21.55
2019-04-07T05:34:40.309Z,22.35
2019-04-07T05:37:14.092Z,20.37
2019-04-07T05:39:47.190Z,21.42
2019-04-07T05:42:20.069Z,19.92
2019-04-07T05:44:53.677Z,18.25
2019-04-07T05:47:26.723Z,19.55
2019-04-07T05:49:59.977Z,20.32
2019-04-07T05:52:38.574Z,19.50
2019-04-07T05:55:09.805Z,19.37
2019-04-07T05:57:43.156Z,18.10
2019-04-07T06:00:17.019Z,20.32
2019-04-07T06:02:50.773Z,16.60
2019-04-07T06:05:24.597Z,17.15
2019-04-07T06:08:02.695Z,16.65
2019-04-07T06:10:32.717Z,16.82
2019-04-07T06:13:05.337Z,16.20
2019-04-07T06:15:39.216Z,16.42
2019-04-07T06:18:12.613Z,14.98
2019-04-07T06:20:46.678Z,16.25
2019-04-07T06:23:23.028Z,16.80
2019-04-07T06:25:57.321Z,16.30
2019-04-07T06:28:29.235Z,15.90
2019-04-07T06:31:03.107Z,16.45
2019-04-07T06:33:38.082Z,16.75
2019-04-07T06:36:10.356Z,16.27
2019-04-07T06:38:49.284Z,16.87
2019-04-07T06:41:17.442Z,18.15
2019-04-07T06:43:51.761Z,19.65
2019-04-07T06:46:45.897Z,19.27
2019-04-07T06:49:47.459Z,20.05
2019-04-07T06:52:35.481Z,22.15
2019-04-07T06:55:33.336Z,21.10
2019-04-07T06:58:40.778Z,20.52
2019-04-07T07:01:29.682Z,19.85
2019-04-07T07:04:19.438Z,19.77
2019-04-07T07:07:01.130Z,18.40
2019-04-07T07:10:02.190Z,14.15
2019-04-07T07:12:53.917Z,13.45
2019-04-07T07:15:49.313Z,13.32
2019-04-07T07:18:34.617Z,13.70
2019-04-07T07:21:39.474Z,14.13
2019-04-07T07:24:14.619Z,13.85
2019-04-07T07:26:46.246Z,14.23
2019-04-07T07:29:19.418Z,12.80
2019-04-07T07:31:58.665Z,13.62
2019-04-07T07:34:27.361Z,14.87
2019-04-07T07:37:00.098Z,14.07
2019-04-07T07:39:34.019Z,16.02
2019-04-07T07:42:09.267Z,49.08
2019-04-07T07:44:42.763Z,17.30
2019-04-07T07:47:15.297Z,18.15
2019-04-07T07:49:48.212Z,18.60
2019-04-07T07:52:21.996Z,19.15
2019-04-07T07:54:55.205Z,18.20
2019-04-07T07:57:28.379Z,19.12
2019-04-07T08:00:05.117Z,17.25
2019-04-07T08:02:35.320Z,22.20
2019-04-07T08:05:09.314Z,23.40
2019-04-07T08:07:45.691Z,16.02
2019-04-07T08:10:17.157Z,17.37
2019-04-07T08:12:49.742Z,16.55
2019-04-07T08:15:25.527Z,15.70
2019-04-07T08:17:57.388Z,14.65
2019-04-07T08:20:29.757Z,14.25
2019-04-07T08:23:02.549Z,14.30
2019-04-07T08:25:36.828Z,15.80
2019-04-07T08:28:09.681Z,15.85
2019-04-07T08:30:44.843Z,16.05
2019-04-07T08:33:17.037Z,14.70
2019-04-07T08:35:50.207Z,13.93
2019-04-07T08:38:25.889Z,17.50
2019-04-07T08:40:57.672Z,17.77
2019-04-07T08:43:30.958Z,16.32
2019-04-07T08:46:05.072Z,17.73
2019-04-07T08:48:38.801Z,20.50
2019-04-07T08:51:11.497Z,18.52
2019-04-07T08:53:45.120Z,17.73
2019-04-07T08:56:18.657Z,16.20
2019-04-07T08:58:51.122Z,18.98
2019-04-07T09:01:24.882Z,17.48
2019-04-07T09:03:58.553Z,19.62
2019-04-07T09:06:31.592Z,18.82
2019-04-07T09:09:07.962Z,18.15
2019-04-07T09:11:42.505Z,17.85
2019-04-07T09:14:17.249Z,18.23
2019-04-07T09:17:30.662Z,18.30
2019-04-07T09:20:08.463Z,18.62
2019-04-07T09:22:51.473Z,18.48
2019-04-07T09:25:42.014Z,17.25
2019-04-07T09:28:34.541Z,18.27
2019-04-07T09:31:28.360Z,18.00
2019-04-07T09:34:20.088Z,18.02
2019-04-07T09:37:18.547Z,18.85
2019-04-07T09:40:06.778Z,18.00
2019-04-07T09:42:57.458Z,17.90
2019-04-07T09:45:51.769Z,17.17
2019-04-07T09:48:48.814Z,14.95
2019-04-07T09:51:42.869Z,16.48
2019-04-07T09:54:40.949Z,15.05
2019-04-07T09:57:39.786Z,14.90
2019-04-07T10:00:34.057Z,13.03
2019-04-07T10:03:24.236Z,13.28
2019-04-07T10:06:23.978Z,13.65
2019-04-07T10:08:57.121Z,13.45
2019-04-07T10:11:49.378Z,13.35
2019-04-07T10:14:43.911Z,11.73
2019-04-07T10:17:47.777Z,11.80
2019-04-07T10:20:51.734Z,11.05
2019-04-07T10:23:34.177Z,11.83
2019-04-07T10:26:15.730Z,10.28
2019-04-07T10:29:10.969Z,12.43
2019-04-07T10:32:07.819Z,12.40
2019-04-07T10:35:05.778Z,11.30
2019-04-07T10:37:56.923Z,12.75
2019-04-07T10:40:46.861Z,12.00
2019-04-07T10:43:42.299Z,12.37
2019-04-07T10:46:33.626Z,11.83
2019-04-07T10:49:40.897Z,10.77
2019-04-07T10:52:22.179Z,11.30
2019-04-07T10:55:11.637Z,11.50
2019-04-07T10:58:18.278Z,10.55
2019-04-07T11:01:09.979Z,10.15
2019-04-07T11:04:03.909Z,10.87
2019-04-07T11:06:58.710Z,11.30
2019-04-07T11:09:48.177Z,11.47
2019-04-07T11:12:36.799Z,11.70
2019-04-07T11:15:41.990Z,13.17
2019-04-07T11:18:26.559Z,12.70
2019-04-07T11:21:22.534Z,13.00
2019-04-07T11:24:14.477Z,12.73
2019-04-07T11:27:06.796Z,13.73
2019-04-07T11:29:46.777Z,13.47
2019-04-07T11:32:53.416Z,11.70
2019-04-07T11:35:47.541Z,11.80
2019-04-07T11:38:34.228Z,12.13
2019-04-07T11:41:37.436Z,12.27
2019-04-07T11:44:31.323Z,11.67
2019-04-07T11:47:38.059Z,11.00
2019-04-07T11:50:30.950Z,11.23
2019-04-07T11:53:40.418Z,10.70
2019-04-07T11:56:21.767Z,10.57
2019-04-07T11:59:20.330Z,12.33
2019-04-07T12:02:18.493Z,12.13
2019-04-07T12:05:06.493Z,12.93
2019-04-07T12:07:58.729Z,12.53
2019-04-07T12:10:58.548Z,12.23
2019-04-07T12:13:31.818Z,13.37
2019-04-07T12:16:28.657Z,14.70
2019-04-07T12:19:14.117Z,13.70
2019-04-07T12:21:59.998Z,15.00
2019-04-07T12:25:02.012Z,14.57
2019-04-07T12:27:58.918Z,12.87
2019-04-07T12:30:51.187Z,17.10
2019-04-07T12:33:40.917Z,14.30
2019-04-07T12:36:44.197Z,15.00
2019-04-07T12:39:36.113Z,16.20
2019-04-07T12:42:42.940Z,16.87
2019-04-07T12:45:35.783Z,16.87
2019-04-07T12:48:30.034Z,18.57
2019-04-07T12:51:08.439Z,17.40
2019-04-07T12:53:53.310Z,18.47
2019-04-07T12:56:43.419Z,17.50
2019-04-07T12:59:29.998Z,17.30
2019-04-07T13:02:24.049Z,23.43
2019-04-07T13:05:16.466Z,18.70
2019-04-07T13:08:08.053Z,18.67
2019-04-07T13:10:49.678Z,17.40
2019-04-07T13:13:40.725Z,17.77
2019-04-07T13:16:23.722Z,18.00
2019-04-07T13:19:13.908Z,18.40
2019-04-07T13:22:04.177Z,19.57
2019-04-07T13:25:07.796Z,19.90
2019-04-07T13:28:15.230Z,20.10
2019-04-07T13:31:05.960Z,20.07
2019-04-07T13:34:04.182Z,19.40
2019-04-07T13:36:54.236Z,18.83
2019-04-07T13:39:54.546Z,19.87
2019-04-07T13:42:45.655Z,19.03
2019-04-07T13:45:44.304Z,20.93
2019-04-07T13:48:34.415Z,19.50
2019-04-07T13:51:22.553Z,20.70
2019-04-07T13:54:20.027Z,20.67
2019-04-07T13:57:15.521Z,19.83
2019-04-07T14:00:12.844Z,21.60
2019-04-07T14:02:58.932Z,21.10
2019-04-07T14:05:47.896Z,21.43
2019-04-07T14:08:38.664Z,19.90
2019-04-07T14:11:49.791Z,21.47
2019-04-07T14:14:42.559Z,19.30
2019-04-07T14:17:36.229Z,19.23
2019-04-07T14:20:29.237Z,20.20
2019-04-07T14:23:19.819Z,19.07
2019-04-07T14:26:03.549Z,19.47
2019-04-07T14:28:58.780Z,18.90
2019-04-07T14:31:52.438Z,17.73
2019-04-07T14:34:45.557Z,18.30
2019-04-07T14:37:51.317Z,17.17
2019-04-07T14:40:33.449Z,19.47
2019-04-07T14:43:15.791Z,20.10
2019-04-07T14:45:56.884Z,18.37
2019-04-07T14:48:41.095Z,18.03
2019-04-07T14:51:35.074Z,18.10
2019-04-07T14:54:25.415Z,18.47
2019-04-07T14:57:08.163Z,18.17
2019-04-07T14:59:56.334Z,18.67
2019-04-07T15:02:29.104Z,18.10
2019-04-07T15:05:13.721Z,19.00
2019-04-07T15:08:04.433Z,18.63
2019-04-07T15:10:47.326Z,18.20
2019-04-07T15:13:27.063Z,18.37
2019-04-07T15:16:00.555Z,18.47
2019-04-07T15:18:33.905Z,19.10
2019-04-07T15:21:06.811Z,17.03
2019-04-07T15:23:39.995Z,17.60
2019-04-07T15:26:16.337Z,17.10
2019-04-07T15:28:46.890Z,18.17
2019-04-07T15:31:20.489Z,18.00
2019-04-07T15:33:53.555Z,17.43
2019-04-07T15:36:26.438Z,19.10
2019-04-07T15:38:58.652Z,19.30
2019-04-07T15:41:32.673Z,17.87
2019-04-07T15:44:06.929Z,17.20
2019-04-07T15:46:39.645Z,18.10
2019-04-07T15:49:12.698Z,16.67
2019-04-07T15:51:45.914Z,18.60
2019-04-07T15:54:22.347Z,17.93
2019-04-07T15:56:52.821Z,19.63
2019-04-07T15:59:29.444Z,18.90
2019-04-07T16:02:01.227Z,18.50
2019-04-07T16:04:34.699Z,18.83
2019-04-07T16:07:09.090Z,18.87
2019-04-07T16:09:51.550Z,18.33
2019-04-07T16:12:16.518Z,17.77
2019-04-07T16:14:50.415Z,18.47
2019-04-07T16:17:24.168Z,17.50
2019-04-07T16:19:57.254Z,18.73
2019-04-07T16:22:29.115Z,20.20
2019-04-07T16:25:02.004Z,18.43
2019-04-07T16:27:37.599Z,18.17
2019-04-07T16:30:08.561Z,18.87
2019-04-07T16:32:41.434Z,18.37
2019-04-07T16:35:16.236Z,17.57
2019-04-07T16:37:48.147Z,17.40
2019-04-07T16:40:21.734Z,15.60
2019-04-07T16:43:09.233Z,17.57
2019-04-07T16:45:29.340Z,17.83
2019-04-07T16:48:04.529Z,17.07
2019-04-07T16:50:37.046Z,16.70
2019-04-07T16:53:09.282Z,16.17
2019-04-07T16:55:46.594Z,16.50
2019-04-07T16:58:17.914Z,16.63
2019-04-07T17:00:49.846Z,17.10
2019-04-07T17:03:23.514Z,15.80
2019-04-07T17:05:59.309Z,15.20
2019-04-07T17:08:30.634Z,14.80
2019-04-07T17:11:07.030Z,14.23
2019-04-07T17:13:41.431Z,19.30
2019-04-07T17:16:12.250Z,15.10
2019-04-07T17:18:48.590Z,15.57
2019-04-07T17:21:22.355Z,15.23
2019-04-07T17:23:55.966Z,14.40
2019-04-07T17:26:29.616Z,20.17
2019-04-07T17:29:03.225Z,14.57
2019-04-07T17:31:35.694Z,14.83
2019-04-07T17:34:10.842Z,14.00
2019-04-07T17:36:42.783Z,15.53
2019-04-07T17:39:38.394Z,14.50
2019-04-07T17:42:14.418Z,14.97
2019-04-07T17:45:24.641Z,16.03
2019-04-07T17:48:14.474Z,14.30
2019-04-07T17:51:09.729Z,14.43
2019-04-07T17:54:12.354Z,12.77
2019-04-07T17:57:04.010Z,13.70
2019-04-07T18:00:02.797Z,13.60
2019-04-07T18:02:58.934Z,12.97
2019-04-07T18:05:50.780Z,12.70
2019-04-07T18:08:45.336Z,10.97
2019-04-07T18:11:37.771Z,13.73
2019-04-07T18:14:30.053Z,12.77
2019-04-07T18:17:23.740Z,11.60
2019-04-07T18:20:14.024Z,11.87
2019-04-07T18:23:05.422Z,11.30
2019-04-07T18:25:54.674Z,11.70
2019-04-07T18:28:45.289Z,11.03
2019-04-07T18:31:36.263Z,10.07
2019-04-07T18:34:23.099Z,10.20
2019-04-07T18:37:11.622Z,9.97
2019-04-07T18:39:57.461Z,9.63
2019-04-07T18:42:52.295Z,8.90
2019-04-07T18:45:48.331Z,8.00
2019-04-07T18:48:38.916Z,8.80
2019-04-07T18:51:48.384Z,9.73
2019-04-07T18:54:36.534Z,8.27
2019-04-07T18:57:30.516Z,6.77
2019-04-07T19:00:21.894Z,7.20
2019-04-07T19:03:09.395Z,7.40
2019-04-07T19:05:47.966Z,7.63
2019-04-07T19:08:46.280Z,8.30
2019-04-07T19:11:34.096Z,6.90
2019-04-07T19:14:44.582Z,5.97
2019-04-07T19:17:34.989Z,4.83
2019-04-07T19:20:26.934Z,4.70
2019-04-07T19:23:36.353Z,4.30
2019-04-07T19:26:26.757Z,4.00
2019-04-07T19:29:21.671Z,5.03
2019-04-07T19:32:12.195Z,5.53
2019-04-07T19:35:13.050Z,3.97
2019-04-07T19:38:04.788Z,5.90
2019-04-07T19:41:00.162Z,5.97
2019-04-07T19:43:56.498Z,5.17
2019-04-07T19:46:52.596Z,3.97
2019-04-07T19:49:43.132Z,6.20
2019-04-07T19:52:36.188Z,6.95
2019-04-07T19:55:24.916Z,9.63
2019-04-07T19:58:26.359Z,6.90
2019-04-07T20:01:09.415Z,6.58
2019-04-07T20:03:59.811Z,6.42
2019-04-07T20:07:07.016Z,7.40
2019-04-07T20:10:21.516Z,7.40
2019-04-07T20:13:21.989Z,7.67
2019-04-07T20:16:19.720Z,7.25
2019-04-07T20:19:09.216Z,8.30
2019-04-07T20:22:00.362Z,7.62
2019-04-07T20:25:05.850Z,8.28
2019-04-07T20:27:44.909Z,7.95
2019-04-07T20:30:36.078Z,6.87
2019-04-07T20:33:32.383Z,7.67
2019-04-07T20:36:20.255Z,16.07
2019-04-07T20:39:00.493Z,7.50
2019-04-07T20:41:43.648Z,7.37
2019-04-07T20:44:35.232Z,7.50
2019-04-07T20:47:23.694Z,8.30
2019-04-07T20:50:14.289Z,7.92
2019-04-07T20:53:12.484Z,7.60
2019-04-07T20:56:00.386Z,9.40
2019-04-07T20:58:56.688Z,7.35
2019-04-07T21:02:02.425Z,8.65
2019-04-07T21:04:43.852Z,7.00
2019-04-07T21:07:28.961Z,6.08
2019-04-07T21:10:09.496Z,6.62
2019-04-07T21:12:57.431Z,7.80
2019-04-07T21:15:55.238Z,7.70
2019-04-07T21:19:06.863Z,5.37
2019-04-07T21:21:56.054Z,5.25
2019-04-07T21:24:45.530Z,7.70
2019-04-07T21:27:34.762Z,7.05
2019-04-07T21:30:20.915Z,7.60
2019-04-07T21:33:03.177Z,7.00
2019-04-07T21:35:42.648Z,6.87
2019-04-07T21:38:34.832Z,6.20
2019-04-07T21:41:28.873Z,6.20
2019-04-07T21:44:28.556Z,6.90
2019-04-07T21:47:26.609Z,6.75
2019-04-07T21:50:17.096Z,6.95
2019-04-07T21:53:13.037Z,8.08
2019-04-07T21:56:08.069Z,6.55
2019-04-07T21:59:03.219Z,7.28
2019-04-07T22:02:11.437Z,6.40
2019-04-07T22:04:58.711Z,7.15
2019-04-07T22:07:49.894Z,6.45
2019-04-07T22:10:23.048Z,6.40
2019-04-07T22:13:00.295Z,6.50
2019-04-07T22:15:41.468Z,6.55
2019-04-07T22:18:07.508Z,6.75
2019-04-07T22:20:39.136Z,6.95
2019-04-07T22:23:12.561Z,6.50
2019-04-07T22:25:54.294Z,6.75
2019-04-07T22:28:28.407Z,4.33
2019-04-07T22:31:01.433Z,7.42
2019-04-07T22:33:34.913Z,7.37
2019-04-07T22:36:11.235Z,7.25
2019-04-07T22:38:41.945Z,6.33
2019-04-07T22:41:15.510Z,6.95
2019-04-07T22:43:50.812Z,6.50
2019-04-07T22:46:26.087Z,7.30
2019-04-07T22:48:58.738Z,6.80
2019-04-07T22:51:30.834Z,8.03
2019-04-07T22:54:03.809Z,6.53
2019-04-07T22:56:39.339Z,7.28
2019-04-07T22:59:11.881Z,6.37
2019-04-07T23:01:45.835Z,7.00
2019-04-07T23:04:18.834Z,6.60
2019-04-07T23:06:50.674Z,6.45
2019-04-07T23:09:23.139Z,6.40
2019-04-07T23:11:56.597Z,6.30
2019-04-07T23:14:29.154Z,6.35
2019-04-07T23:17:01.649Z,6.17
2019-04-07T23:19:34.409Z,5.60
2019-04-07T23:22:08.076Z,6.50
2019-04-07T23:24:41.058Z,5.60
2019-04-07T23:27:14.543Z,5.90
2019-04-07T23:29:46.478Z,5.47
2019-04-07T23:32:19.133Z,5.75
2019-04-07T23:34:52.397Z,5.87
2019-04-07T23:37:24.714Z,5.53
2019-04-07T23:39:58.080Z,5.80
2019-04-07T23:42:30.509Z,5.33
2019-04-07T23:45:03.187Z,5.75
2019-04-07T23:47:35.440Z,7.00
2019-04-07T23:50:09.151Z,6.05
2019-04-07T23:52:41.714Z,6.00
2019-04-07T23:55:14.951Z,6.10
2019-04-07T23:57:48.666Z,6.40
